createdAt,value
2023-04-16T00:00:37.796Z,9.80
2023-04-16T00:03:39.760Z,10.55
2023-04-16T00:06:41.876Z,12.68
2023-04-16T00:09:43.524Z,12.90
2023-04-16T00:12:45.293Z,10.15
2023-04-16T00:15:46.945Z,8.90
2023-04-16T00:18:48.500Z,11.23
2023-04-16T00:21:50.369Z,10.68
2023-04-16T00:24:51.957Z,10.50
2023-04-16T00:27:53.562Z,11.15
2023-04-16T00:30:55.750Z,10.52
2023-04-16T00:33:57.759Z,11.65
2023-04-16T00:36:59.872Z,7.68
2023-04-16T00:40:01.786Z,11.25
2023-04-16T00:43:03.457Z,7.55
2023-04-16T00:46:07.121Z,8.13
2023-04-16T00:49:09.965Z,8.48
2023-04-16T00:52:12.095Z,8.77
2023-04-16T00:55:15.188Z,8.48
2023-04-16T00:58:17.234Z,9.77
2023-04-16T01:01:18.860Z,10.82
2023-04-16T01:04:21.127Z,10.27
2023-04-16T01:07:22.832Z,9.73
2023-04-16T01:10:24.407Z,9.75
2023-04-16T01:13:26.040Z,9.48
2023-04-16T01:16:27.785Z,8.65
2023-04-16T01:19:36.232Z,11.20
2023-04-16T01:22:37.926Z,9.82
2023-04-16T01:25:39.679Z,10.30
2023-04-16T01:28:41.420Z,15.25
2023-04-16T01:31:43.098Z,11.57
2023-04-16T01:34:53.846Z,13.20
2023-04-16T01:37:56.014Z,11.82
2023-04-16T01:40:58.091Z,12.82
2023-04-16T01:43:59.696Z,14.88
2023-04-16T01:47:01.438Z,15.07
2023-04-16T01:50:05.472Z,14.43
2023-04-16T01:53:07.336Z,12.70
2023-04-16T01:56:08.984Z,15.75
2023-04-16T01:59:10.966Z,15.02
2023-04-16T02:02:16.331Z,14.27
2023-04-16T02:05:18.016Z,15.57
2023-04-16T02:08:21.549Z,16.42
2023-04-16T02:11:23.173Z,15.02
2023-04-16T02:14:25.986Z,16.33
2023-04-16T02:17:27.848Z,16.88
2023-04-16T02:20:42.567Z,19.80
2023-04-16T02:23:47.529Z,19.00
2023-04-16T02:26:49.173Z,19.52
2023-04-16T02:29:52.918Z,18.42
2023-04-16T02:32:54.631Z,17.40
2023-04-16T02:35:56.932Z,15.50
2023-04-16T02:38:59.327Z,16.30
2023-04-16T02:42:02.868Z,13.88
2023-04-16T02:45:04.919Z,15.18
2023-04-16T02:48:08.706Z,16.25
2023-04-16T02:51:10.304Z,15.63
2023-04-16T02:54:11.951Z,17.55
2023-04-16T02:57:13.610Z,16.00
2023-04-16T03:00:15.373Z,18.70
2023-04-16T03:03:17.510Z,16.70
2023-04-16T03:06:19.157Z,13.48
2023-04-16T03:09:21.090Z,14.05
2023-04-16T03:12:22.697Z,11.35
2023-04-16T03:15:25.235Z,11.27
2023-04-16T03:18:26.986Z,12.25
2023-04-16T03:21:28.600Z,12.23
2023-04-16T03:24:30.198Z,10.35
2023-04-16T03:27:32.618Z,10.45
2023-04-16T03:30:34.195Z,11.50
2023-04-16T03:33:36.106Z,11.57
2023-04-16T03:36:38.714Z,13.27
2023-04-16T03:39:40.504Z,13.18
2023-04-16T03:42:45.534Z,13.10
2023-04-16T03:45:47.533Z,13.38
2023-04-16T03:48:49.211Z,16.55
2023-04-16T03:51:51.205Z,16.00
2023-04-16T03:54:52.845Z,15.25
2023-04-16T03:58:05.625Z,16.97
2023-04-16T04:01:07.957Z,17.70
2023-04-16T04:04:11.049Z,17.55
2023-04-16T04:07:12.779Z,19.08
2023-04-16T04:10:14.807Z,19.23
2023-04-16T04:13:17.216Z,19.70
2023-04-16T04:16:19.214Z,15.30
2023-04-16T04:19:20.908Z,19.15
2023-04-16T04:22:23.358Z,18.20
2023-04-16T04:25:27.315Z,18.25
2023-04-16T04:28:32.760Z,17.58
2023-04-16T04:31:34.519Z,19.10
2023-04-16T04:34:37.190Z,16.48
2023-04-16T04:37:40.520Z,18.73
2023-04-16T04:40:48.914Z,16.50
2023-04-16T04:43:52.318Z,19.52
2023-04-16T04:46:53.943Z,20.70
2023-04-16T04:49:55.597Z,21.13
2023-04-16T04:52:57.225Z,18.58
2023-04-16T04:56:09.169Z,19.00
2023-04-16T04:59:13.964Z,19.30
2023-04-16T05:02:16.236Z,16.63
2023-04-16T05:05:17.971Z,21.00
2023-04-16T05:08:19.556Z,15.98
2023-04-16T05:11:21.364Z,18.63
2023-04-16T05:14:23.107Z,21.25
2023-04-16T05:17:24.731Z,22.55
2023-04-16T05:20:26.311Z,19.48
2023-04-16T05:23:28.065Z,19.30
2023-04-16T05:26:29.633Z,20.60
2023-04-16T05:29:31.273Z,21.27
2023-04-16T05:32:32.897Z,19.40
2023-04-16T05:35:35.106Z,20.10
2023-04-16T05:38:36.699Z,19.52
2023-04-16T05:41:38.274Z,20.27
2023-04-16T05:44:40.782Z,20.40
2023-04-16T05:47:42.391Z,18.00
2023-04-16T05:50:44.134Z,18.48
2023-04-16T05:53:45.987Z,20.95
2023-04-16T05:56:47.544Z,18.80
2023-04-16T05:59:49.288Z,25.35
2023-04-16T06:02:51.377Z,20.33
2023-04-16T06:05:53.522Z,19.27
2023-04-16T06:08:55.170Z,17.40
2023-04-16T06:11:57.984Z,18.52
2023-04-16T06:15:00.258Z,20.63
2023-04-16T06:18:01.938Z,15.70
2023-04-16T06:21:04.618Z,23.90
2023-04-16T06:24:06.443Z,18.23
2023-04-16T06:27:08.090Z,18.60
2023-04-16T06:30:14.263Z,19.13
2023-04-16T06:33:16.254Z,19.58
2023-04-16T06:36:17.897Z,16.42
2023-04-16T06:39:21.752Z,18.92
2023-04-16T06:42:23.496Z,21.52
2023-04-16T06:45:25.081Z,18.33
2023-04-16T06:48:27.386Z,20.05
2023-04-16T06:51:29.053Z,23.67
2023-04-16T06:54:31.010Z,20.67
2023-04-16T06:57:32.603Z,20.38
2023-04-16T07:00:34.241Z,20.35
2023-04-16T07:03:36.707Z,23.88
2023-04-16T07:06:38.448Z,25.07
2023-04-16T07:09:40.057Z,20.27
2023-04-16T07:12:41.647Z,24.45
2023-04-16T07:15:43.310Z,23.45
2023-04-16T07:18:45.010Z,23.25
2023-04-16T07:21:46.618Z,21.52
2023-04-16T07:24:48.295Z,20.83
2023-04-16T07:27:49.869Z,22.92
2023-04-16T07:30:51.562Z,23.20
2023-04-16T07:33:53.309Z,18.88
2023-04-16T07:36:54.860Z,20.90
2023-04-16T07:39:57.636Z,21.52
2023-04-16T07:42:59.365Z,20.92
2023-04-16T07:46:01.291Z,21.77
2023-04-16T07:49:02.879Z,19.35
2023-04-16T07:52:04.474Z,21.65
2023-04-16T07:55:06.426Z,22.80
2023-04-16T07:58:09.508Z,19.63
2023-04-16T08:01:11.454Z,18.17
2023-04-16T08:04:14.273Z,18.85
2023-04-16T08:07:16.101Z,17.75
2023-04-16T08:10:17.708Z,18.05
2023-04-16T08:13:19.518Z,14.90
2023-04-16T08:16:21.229Z,17.92
2023-04-16T08:19:22.875Z,15.43
2023-04-16T08:22:24.676Z,18.48
2023-04-16T08:25:26.318Z,16.02
2023-04-16T08:28:28.034Z,16.02
2023-04-16T08:31:32.979Z,18.25
2023-04-16T08:37:40.698Z,13.32
2023-04-16T08:40:46.726Z,14.88
2023-04-16T08:43:51.664Z,17.92
2023-04-16T08:46:58.195Z,18.13
2023-04-16T08:50:00.999Z,15.15
2023-04-16T08:53:06.887Z,16.25
2023-04-16T08:56:11.397Z,15.27
2023-04-16T08:59:13.075Z,14.75
2023-04-16T09:02:15.076Z,18.33
2023-04-16T09:05:17.946Z,18.13
2023-04-16T09:08:20.296Z,15.77
2023-04-16T09:11:22.300Z,15.18
2023-04-16T09:14:23.982Z,15.38
2023-04-16T09:17:25.615Z,14.55
2023-04-16T09:20:27.261Z,16.15
2023-04-16T09:23:29.654Z,15.43
2023-04-16T09:26:31.724Z,13.27
2023-04-16T09:29:38.380Z,12.98
2023-04-16T09:32:40.177Z,14.07
2023-04-16T09:35:50.129Z,13.05
2023-04-16T09:38:52.737Z,17.33
2023-04-16T09:41:55.299Z,12.52
2023-04-16T09:44:59.479Z,12.57
2023-04-16T09:48:05.969Z,13.68
2023-04-16T09:51:07.790Z,13.88
2023-04-16T09:54:09.752Z,14.55
2023-04-16T09:57:11.460Z,12.60
2023-04-16T10:00:13.786Z,15.50
2023-04-16T10:03:15.647Z,13.52
2023-04-16T10:06:19.694Z,12.38
2023-04-16T10:09:22.773Z,14.68
2023-04-16T10:12:24.420Z,14.20
2023-04-16T10:15:26.671Z,14.57
2023-04-16T10:18:29.135Z,12.50
2023-04-16T10:21:33.865Z,14.40
2023-04-16T10:24:35.998Z,15.88
2023-04-16T10:27:38.481Z,14.63
2023-04-16T10:30:40.653Z,15.18
2023-04-16T10:33:44.174Z,15.48
2023-04-16T10:36:50.151Z,18.00
2023-04-16T10:39:52.515Z,15.30
2023-04-16T10:42:59.329Z,16.97
2023-04-16T10:46:23.154Z,16.40
2023-04-16T10:49:26.380Z,17.13
2023-04-16T10:55:31.118Z,16.60
2023-04-16T10:58:36.566Z,16.00
2023-04-16T11:01:46.202Z,16.05
2023-04-16T11:04:49.328Z,17.33
2023-04-16T11:07:51.343Z,13.68
2023-04-16T11:10:53.921Z,15.45
2023-04-16T11:13:56.903Z,17.42
2023-04-16T11:16:58.606Z,15.80
2023-04-16T11:20:00.390Z,14.40
2023-04-16T11:23:02.094Z,16.50
2023-04-16T11:26:03.694Z,16.42
2023-04-16T11:29:14.634Z,14.85
2023-04-16T11:32:22.784Z,16.45
2023-04-16T11:35:24.597Z,13.90
2023-04-16T11:38:37.273Z,16.13
2023-04-16T11:41:49.759Z,14.70
2023-04-16T11:44:56.218Z,15.17
2023-04-16T11:47:57.997Z,15.45
2023-04-16T11:50:59.733Z,15.32
2023-04-16T11:54:02.177Z,14.32
2023-04-16T11:57:06.602Z,17.10
2023-04-16T12:00:13.873Z,26.80
2023-04-16T12:03:15.938Z,25.80
2023-04-16T12:06:17.825Z,12.50
2023-04-16T12:09:27.065Z,11.55
2023-04-16T12:12:31.651Z,12.38
2023-04-16T12:15:44.539Z,11.00
2023-04-16T12:19:00.019Z,11.07
2023-04-16T12:22:01.641Z,13.00
2023-04-16T12:25:11.290Z,12.13
2023-04-16T12:28:13.818Z,12.45
2023-04-16T12:31:15.853Z,12.07
2023-04-16T12:34:18.852Z,11.68
2023-04-16T12:37:20.430Z,12.45
2023-04-16T12:40:22.048Z,12.85
2023-04-16T12:43:23.761Z,13.18
2023-04-16T12:46:25.781Z,12.55
2023-04-16T12:49:27.427Z,12.90
2023-04-16T12:52:29.168Z,14.95
2023-04-16T12:55:30.914Z,16.55
2023-04-16T12:58:32.484Z,16.05
2023-04-16T13:01:36.743Z,14.32
2023-04-16T13:04:38.631Z,14.30
2023-04-16T13:07:41.364Z,12.20
2023-04-16T13:10:43.013Z,14.32
2023-04-16T13:13:44.952Z,12.95
2023-04-16T13:16:46.669Z,10.88
2023-04-16T13:19:48.203Z,14.23
2023-04-16T13:22:49.899Z,12.07
2023-04-16T13:25:51.542Z,12.60
2023-04-16T13:28:53.108Z,14.55
2023-04-16T13:31:54.863Z,13.15
2023-04-16T13:34:56.460Z,12.40
2023-04-16T13:37:58.015Z,12.35
2023-04-16T13:40:59.546Z,16.20
2023-04-16T13:44:01.232Z,13.95
2023-04-16T13:47:03.026Z,12.95
2023-04-16T13:50:05.008Z,15.57
2023-04-16T13:53:07.120Z,18.15
2023-04-16T13:56:08.778Z,15.70
2023-04-16T13:59:10.630Z,14.85
2023-04-16T14:02:12.956Z,14.00
2023-04-16T14:05:14.727Z,17.48
2023-04-16T14:08:17.000Z,19.45
2023-04-16T14:11:18.629Z,16.53
2023-04-16T14:14:21.328Z,16.83
2023-04-16T14:17:22.983Z,16.77
2023-04-16T14:20:24.596Z,15.73
2023-04-16T14:23:26.623Z,18.15
2023-04-16T14:26:28.366Z,20.83
2023-04-16T14:29:30.972Z,16.90
2023-04-16T14:32:32.582Z,17.77
2023-04-16T14:35:34.615Z,14.95
2023-04-16T14:38:36.277Z,15.82
2023-04-16T14:41:37.850Z,16.85
2023-04-16T14:44:39.453Z,16.02
2023-04-16T14:47:45.882Z,17.85
2023-04-16T14:50:47.805Z,17.88
2023-04-16T14:53:49.385Z,17.65
2023-04-16T14:56:50.994Z,16.88
2023-04-16T14:59:52.612Z,19.88
2023-04-16T15:02:57.791Z,14.57
2023-04-16T15:05:59.636Z,20.05
2023-04-16T15:09:01.564Z,23.42
2023-04-16T15:12:04.200Z,21.60
2023-04-16T15:15:09.099Z,19.90
2023-04-16T15:18:10.886Z,21.52
2023-04-16T15:21:12.876Z,21.10
2023-04-16T15:24:14.530Z,23.95
2023-04-16T15:27:17.704Z,14.32
2023-04-16T15:30:19.698Z,15.48
2023-04-16T15:33:21.717Z,17.42
2023-04-16T15:36:23.573Z,16.08
2023-04-16T15:39:25.219Z,17.40
2023-04-16T15:42:27.324Z,16.30
2023-04-16T15:45:30.215Z,36.08
2023-04-16T15:48:34.592Z,25.35
2023-04-16T15:51:36.306Z,18.25
2023-04-16T15:54:37.962Z,22.67
2023-04-16T15:57:39.620Z,23.23
2023-04-16T16:00:41.655Z,18.75
2023-04-16T16:03:43.652Z,22.48
2023-04-16T16:06:45.480Z,20.15
2023-04-16T16:09:48.017Z,21.77
2023-04-16T16:12:49.617Z,18.38
2023-04-16T16:15:51.550Z,20.33
2023-04-16T16:18:53.176Z,16.38
2023-04-16T16:21:54.719Z,17.73
2023-04-16T16:24:57.605Z,15.52
2023-04-16T16:31:02.035Z,16.88
2023-04-16T16:34:03.694Z,15.40
2023-04-16T16:37:06.339Z,16.60
2023-04-16T16:40:08.748Z,17.52
2023-04-16T16:43:10.571Z,17.03
2023-04-16T16:46:12.178Z,16.52
2023-04-16T16:49:14.472Z,18.15
2023-04-16T16:52:16.080Z,17.10
2023-04-16T16:55:18.905Z,19.15
2023-04-16T16:58:20.833Z,18.70
2023-04-16T17:01:22.516Z,21.15
2023-04-16T17:04:24.494Z,17.70
2023-04-16T17:07:26.312Z,17.58
2023-04-16T17:10:27.918Z,18.45
2023-04-16T17:13:30.139Z,16.33
2023-04-16T17:16:31.802Z,15.88
2023-04-16T17:19:33.458Z,14.35
2023-04-16T17:22:35.218Z,13.77
2023-04-16T17:25:36.899Z,15.00
2023-04-16T17:28:38.532Z,16.13
2023-04-16T17:31:40.198Z,14.18
2023-04-16T17:34:41.938Z,25.98
2023-04-16T17:37:43.615Z,14.10
2023-04-16T17:40:45.308Z,15.85
2023-04-16T17:43:49.569Z,15.02
2023-04-16T17:46:51.395Z,13.13
2023-04-16T17:49:54.529Z,12.88
2023-04-16T17:52:58.089Z,12.05
2023-04-16T17:55:59.649Z,11.63
2023-04-16T17:59:01.457Z,12.93
2023-04-16T18:02:03.274Z,11.75
2023-04-16T18:05:07.220Z,13.32
2023-04-16T18:08:08.910Z,13.77
2023-04-16T18:11:10.644Z,12.40
2023-04-16T18:14:16.589Z,12.95
2023-04-16T18:17:18.155Z,11.60
2023-04-16T18:20:19.843Z,13.48
2023-04-16T18:23:21.601Z,11.25
2023-04-16T18:26:23.344Z,10.70
2023-04-16T18:29:25.620Z,14.68
2023-04-16T18:32:31.039Z,12.85
2023-04-16T18:35:33.173Z,9.25
2023-04-16T18:38:38.236Z,13.15
2023-04-16T18:41:48.231Z,11.73
2023-04-16T18:44:54.041Z,11.73
2023-04-16T18:47:58.799Z,10.90
2023-04-16T18:51:00.457Z,11.73
2023-04-16T18:54:02.201Z,11.32
2023-04-16T18:57:04.048Z,11.57
2023-04-16T19:00:12.350Z,13.48
2023-04-16T19:03:14.113Z,12.55
2023-04-16T19:06:16.045Z,15.20
2023-04-16T19:09:17.801Z,14.02
2023-04-16T19:12:19.827Z,12.23
2023-04-16T19:15:21.827Z,11.05
2023-04-16T19:18:23.376Z,11.52
2023-04-16T19:21:25.838Z,11.40
2023-04-16T19:24:27.409Z,13.90
2023-04-16T19:27:29.593Z,12.43
2023-04-16T19:30:31.191Z,13.25
2023-04-16T19:33:32.829Z,11.77
2023-04-16T19:36:34.502Z,11.90
2023-04-16T19:39:36.461Z,13.23
2023-04-16T19:42:38.023Z,12.98
2023-04-16T19:45:47.445Z,13.10
2023-04-16T19:48:49.107Z,13.13
2023-04-16T19:51:51.039Z,12.00
2023-04-16T19:54:52.619Z,12.40
2023-04-16T19:57:54.220Z,12.50
2023-04-16T20:00:56.419Z,12.40
2023-04-16T20:03:58.083Z,12.73
2023-04-16T20:06:59.694Z,13.55
2023-04-16T20:10:02.765Z,14.45
2023-04-16T20:13:04.901Z,15.15
2023-04-16T20:16:08.354Z,13.82
2023-04-16T20:19:10.455Z,11.30
2023-04-16T20:22:12.300Z,14.33
2023-04-16T20:25:14.473Z,12.77
2023-04-16T20:28:18.045Z,14.98
2023-04-16T20:31:19.712Z,14.52
2023-04-16T20:34:21.281Z,15.73
2023-04-16T20:37:22.916Z,15.40
2023-04-16T20:40:30.393Z,14.90
2023-04-16T20:43:38.562Z,14.85
2023-04-16T20:46:41.944Z,13.18
2023-04-16T20:52:48.358Z,12.98
2023-04-16T20:55:49.942Z,12.10
2023-04-16T20:58:53.096Z,15.48
2023-04-16T21:01:55.002Z,12.70
2023-04-16T21:04:56.991Z,14.52
2023-04-16T21:07:58.558Z,15.38
2023-04-16T21:11:00.182Z,16.10
2023-04-16T21:14:05.956Z,16.58
2023-04-16T21:17:07.531Z,16.15
2023-04-16T21:20:13.482Z,15.10
2023-04-16T21:23:15.481Z,15.70
2023-04-16T21:26:17.249Z,16.33
2023-04-16T21:29:18.805Z,13.30
2023-04-16T21:32:20.906Z,14.27
2023-04-16T21:35:22.602Z,13.98
2023-04-16T21:38:24.275Z,14.73
2023-04-16T21:41:26.513Z,15.68
2023-04-16T21:44:28.114Z,13.05
2023-04-16T21:47:29.719Z,18.70
2023-04-16T21:50:31.412Z,15.23
2023-04-16T21:53:33.625Z,12.50
2023-04-16T21:56:35.250Z,15.15
2023-04-16T21:59:36.931Z,14.95
2023-04-16T22:02:38.655Z,16.60
2023-04-16T22:05:40.336Z,14.07
2023-04-16T22:08:41.971Z,15.30
2023-04-16T22:11:46.524Z,18.35
2023-04-16T22:14:59.707Z,15.77
2023-04-16T22:18:03.551Z,16.63
2023-04-16T22:21:05.256Z,15.10
2023-04-16T22:24:07.042Z,17.67
2023-04-16T22:27:08.841Z,25.70
2023-04-16T22:30:10.943Z,36.28
2023-04-16T22:33:12.643Z,23.58
2023-04-16T22:36:14.374Z,24.80
2023-04-16T22:39:16.089Z,29.90
2023-04-16T22:42:17.715Z,27.98
2023-04-16T22:45:19.334Z,22.85
2023-04-16T22:48:21.106Z,18.23
2023-04-16T22:51:24.310Z,18.52
2023-04-16T22:54:29.861Z,17.90
2023-04-16T22:57:31.448Z,17.00
2023-04-16T23:00:33.043Z,16.67
2023-04-16T23:03:34.684Z,18.92
2023-04-16T23:06:36.342Z,17.80
2023-04-16T23:09:37.944Z,14.43
2023-04-16T23:12:39.579Z,16.05
2023-04-16T23:15:41.180Z,14.15
2023-04-16T23:18:43.034Z,17.88
2023-04-16T23:21:44.731Z,17.63
2023-04-16T23:24:46.847Z,15.93
2023-04-16T23:27:48.456Z,14.60
2023-04-16T23:30:53.358Z,16.65
2023-04-16T23:33:55.055Z,16.33
2023-04-16T23:36:56.597Z,13.90
2023-04-16T23:39:58.273Z,15.75
2023-04-16T23:42:59.862Z,16.60
2023-04-16T23:46:02.343Z,16.00
2023-04-16T23:49:04.562Z,15.38
2023-04-16T23:52:06.231Z,18.58
2023-04-16T23:55:08.305Z,20.35
2023-04-16T23:58:09.911Z,16.52
